createdAt,value
2023-05-12T00:02:38.978Z,25.00
2023-05-12T00:03:39.972Z,25.00
2023-05-12T00:04:39.906Z,25.00
2023-05-12T00:05:39.914Z,25.00
2023-05-12T00:06:39.927Z,25.00
2023-05-12T00:07:39.952Z,16.43
2023-05-12T00:08:39.984Z,12.95
2023-05-12T00:09:40.009Z,21.63
2023-05-12T00:10:40.025Z,23.67
2023-05-12T00:11:40.043Z,25.87
2023-05-12T00:12:40.075Z,26.00
2023-05-12T00:13:40.230Z,37.11
2023-05-12T00:14:40.146Z,46.56
2023-05-12T00:15:40.160Z,42.37
2023-05-12T00:16:40.241Z,25.23
2023-05-12T00:17:40.207Z,26.97
2023-05-12T00:18:40.320Z,25.57
2023-05-12T00:19:40.229Z,24.64
2023-05-12T00:20:40.246Z,25.00
2023-05-12T00:21:40.272Z,25.00
2023-05-12T00:22:40.290Z,29.94
2023-05-12T00:23:40.317Z,35.51
2023-05-12T00:24:40.366Z,43.06
2023-05-12T00:25:40.368Z,39.18
2023-05-12T00:26:40.396Z,26.53
2023-05-12T00:27:40.419Z,26.06
2023-05-12T00:28:40.462Z,25.00
2023-05-12T00:29:40.515Z,23.87
2023-05-12T00:30:40.537Z,33.92
2023-05-12T00:31:40.584Z,37.65
2023-05-12T00:32:40.656Z,31.79
2023-05-12T00:33:40.635Z,26.82
2023-05-12T00:34:40.704Z,25.86
2023-05-12T00:35:40.732Z,32.45
2023-05-12T00:36:40.756Z,37.78
2023-05-12T00:37:40.779Z,47.44
2023-05-12T00:38:40.804Z,59.12
2023-05-12T00:39:40.876Z,67.03
2023-05-12T00:40:40.995Z,78.99
2023-05-12T00:41:41.055Z,90.34
2023-05-12T00:42:41.093Z,103.87
2023-05-12T00:43:41.134Z,119.20
2023-05-12T00:44:41.252Z,134.60
2023-05-12T00:45:41.426Z,141.71
2023-05-12T00:46:41.399Z,146.32
2023-05-12T00:47:41.575Z,149.28
2023-05-12T00:48:41.549Z,156.91
2023-05-12T00:49:41.634Z,161.95
2023-05-12T00:50:41.732Z,159.12
2023-05-12T00:51:41.766Z,147.37
2023-05-12T00:52:41.857Z,140.75
2023-05-12T00:53:49.790Z,143.17
2023-05-12T00:54:41.958Z,143.32
2023-05-12T00:55:42.027Z,143.22
2023-05-12T00:56:42.028Z,131.11
2023-05-12T00:57:42.066Z,109.71
2023-05-12T00:58:42.078Z,110.21
2023-05-12T00:59:42.075Z,106.94
2023-05-12T01:00:42.151Z,109.62
2023-05-12T01:01:42.188Z,116.76
2023-05-12T01:02:42.201Z,119.09
2023-05-12T01:03:42.293Z,127.38
2023-05-12T01:04:42.239Z,134.86
2023-05-12T01:05:42.267Z,127.88
2023-05-12T01:06:42.294Z,133.10
2023-05-12T01:07:42.289Z,131.46
2023-05-12T01:08:42.330Z,134.74
2023-05-12T01:09:42.371Z,129.75
2023-05-12T01:10:42.443Z,129.40
2023-05-12T01:11:42.449Z,111.49
2023-05-12T01:12:42.510Z,81.65
2023-05-12T01:13:42.570Z,76.96
2023-05-12T01:14:42.565Z,83.55
2023-05-12T01:15:42.634Z,83.20
2023-05-12T01:16:42.645Z,69.85
2023-05-12T01:17:42.786Z,66.22
2023-05-12T01:18:42.705Z,68.52
2023-05-12T01:19:42.706Z,55.29
2023-05-12T01:20:42.784Z,54.33
2023-05-12T01:21:42.767Z,56.27
2023-05-12T01:22:42.794Z,57.81
2023-05-12T01:23:42.788Z,56.39
2023-05-12T01:24:42.829Z,48.04
2023-05-12T01:25:42.930Z,49.04
2023-05-12T01:26:42.848Z,69.87
2023-05-12T01:27:42.863Z,93.03
2023-05-12T01:28:42.878Z,112.59
2023-05-12T01:29:42.914Z,129.68
2023-05-12T01:30:43.059Z,144.05
2023-05-12T01:31:43.236Z,144.37
2023-05-12T01:32:43.660Z,154.50
2023-05-12T01:33:43.267Z,171.65
2023-05-12T01:34:43.376Z,184.79
2023-05-12T01:35:43.460Z,177.42
2023-05-12T01:36:43.473Z,169.41
2023-05-12T01:37:43.522Z,172.69
2023-05-12T01:38:43.583Z,174.61
2023-05-12T01:39:43.613Z,172.23
2023-05-12T01:40:43.679Z,177.13
2023-05-12T01:41:43.778Z,171.70
2023-05-12T01:42:43.887Z,173.41
2023-05-12T01:43:43.939Z,169.03
2023-05-12T01:44:44.026Z,174.87
2023-05-12T01:45:44.087Z,180.49
2023-05-12T01:46:44.234Z,181.24
2023-05-12T01:47:44.220Z,182.16
2023-05-12T01:48:44.243Z,161.02
2023-05-12T01:49:44.282Z,142.25
2023-05-12T01:50:44.342Z,129.09
2023-05-12T01:51:44.350Z,139.15
2023-05-12T01:52:44.401Z,122.51
2023-05-12T01:53:44.438Z,110.70
2023-05-12T01:54:44.574Z,64.12
2023-05-12T01:55:44.537Z,29.53
2023-05-12T01:56:44.606Z,25.00
2023-05-12T01:57:44.641Z,23.83
2023-05-12T01:58:44.819Z,23.60
2023-05-12T01:59:44.759Z,25.28
2023-05-12T02:00:44.820Z,19.22
2023-05-12T02:01:44.952Z,10.25
2023-05-12T02:02:45.029Z,33.01
2023-05-12T02:03:45.146Z,69.15
2023-05-12T02:04:45.150Z,104.09
2023-05-12T02:05:45.186Z,128.08
2023-05-12T02:06:45.278Z,126.39
2023-05-12T02:07:45.326Z,118.11
2023-05-12T02:08:45.366Z,117.16
2023-05-12T02:09:45.395Z,66.95
2023-05-12T02:10:45.492Z,49.31
2023-05-12T02:11:45.511Z,79.51
2023-05-12T02:12:45.576Z,70.90
2023-05-12T02:13:45.608Z,55.46
2023-05-12T02:14:45.668Z,52.63
2023-05-12T02:15:45.725Z,48.58
2023-05-12T02:16:45.966Z,63.20
2023-05-12T02:17:45.873Z,75.25
2023-05-12T02:18:45.883Z,72.29
2023-05-12T02:19:45.913Z,72.77
2023-05-12T02:20:45.970Z,67.12
2023-05-12T02:21:46.114Z,61.05
2023-05-12T02:22:46.099Z,30.22
2023-05-12T02:23:46.168Z,25.58
2023-05-12T02:24:46.288Z,25.00
2023-05-12T02:25:46.395Z,17.72
2023-05-12T02:26:46.541Z,31.49
2023-05-12T02:27:46.591Z,51.94
2023-05-12T02:28:46.646Z,67.37
2023-05-12T02:29:46.753Z,65.29
2023-05-12T02:30:46.863Z,61.70
2023-05-12T02:31:46.990Z,25.92
2023-05-12T02:32:47.072Z,31.06
2023-05-12T02:33:47.131Z,46.59
2023-05-12T02:34:47.260Z,66.67
2023-05-12T02:35:47.357Z,64.76
2023-05-12T02:36:47.474Z,76.39
2023-05-12T02:37:47.584Z,75.07
2023-05-12T02:38:47.656Z,54.69
2023-05-12T02:39:47.735Z,73.94
2023-05-12T02:40:47.914Z,58.86
2023-05-12T02:41:47.993Z,42.61
2023-05-12T02:42:48.081Z,29.17
2023-05-12T02:43:48.175Z,28.17
2023-05-12T02:44:48.275Z,29.49
2023-05-12T02:45:48.396Z,56.77
2023-05-12T02:46:48.459Z,66.74
2023-05-12T02:47:48.571Z,54.13
2023-05-12T02:48:48.674Z,25.23
2023-05-12T02:49:48.826Z,37.46
2023-05-12T02:50:48.927Z,42.95
2023-05-12T02:51:49.028Z,36.78
2023-05-12T02:52:49.136Z,33.44
2023-05-12T02:53:49.193Z,36.96
2023-05-12T02:54:49.259Z,39.95
2023-05-12T02:55:49.305Z,40.80
2023-05-12T02:56:49.404Z,27.93
2023-05-12T02:57:49.512Z,25.00
2023-05-12T02:58:49.660Z,25.00
2023-05-12T02:59:49.748Z,32.93
2023-05-12T03:00:56.928Z,59.16
2023-05-12T03:01:49.984Z,59.32
2023-05-12T03:02:50.014Z,60.33
2023-05-12T03:03:50.076Z,66.61
2023-05-12T03:04:50.073Z,79.46
2023-05-12T03:05:50.121Z,69.46
2023-05-12T03:06:50.185Z,71.56
2023-05-12T03:07:50.266Z,84.06
2023-05-12T03:08:50.317Z,96.60
2023-05-12T03:09:50.403Z,82.90
2023-05-12T03:10:50.466Z,93.58
2023-05-12T03:11:50.541Z,89.30
2023-05-12T03:12:50.590Z,100.67
2023-05-12T03:13:50.655Z,103.11
2023-05-12T03:14:50.748Z,88.22
2023-05-12T03:15:50.797Z,110.53
2023-05-12T03:16:50.924Z,114.53
2023-05-12T03:17:50.988Z,96.74
2023-05-12T03:18:50.999Z,81.88
2023-05-12T03:19:51.055Z,71.63
2023-05-12T03:20:51.118Z,81.07
2023-05-12T03:21:51.171Z,80.88
2023-05-12T03:22:51.240Z,66.08
2023-05-12T03:23:51.290Z,62.78
2023-05-12T03:24:51.362Z,70.27
2023-05-12T03:25:51.451Z,64.29
2023-05-12T03:26:51.501Z,76.61
2023-05-12T03:27:51.550Z,98.34
2023-05-12T03:28:51.623Z,98.62
2023-05-12T03:29:51.684Z,91.58
2023-05-12T03:30:51.788Z,62.52
2023-05-12T03:31:51.900Z,55.09
2023-05-12T03:32:51.912Z,52.51
2023-05-12T03:33:51.936Z,38.75
2023-05-12T03:34:51.999Z,57.94
2023-05-12T03:35:52.099Z,53.11
2023-05-12T03:36:52.146Z,51.11
2023-05-12T03:37:52.193Z,61.55
2023-05-12T03:38:52.215Z,82.74
2023-05-12T03:39:52.273Z,91.69
2023-05-12T03:40:52.326Z,106.54
2023-05-12T03:41:52.415Z,121.60
2023-05-12T03:42:52.491Z,121.19
2023-05-12T03:43:52.616Z,103.75
2023-05-12T03:44:52.702Z,117.06
2023-05-12T03:45:52.831Z,156.49
2023-05-12T03:46:53.043Z,162.95
2023-05-12T03:47:53.073Z,132.24
2023-05-12T03:48:53.140Z,84.66
2023-05-12T03:49:53.255Z,47.52
2023-05-12T03:50:53.373Z,27.97
2023-05-12T03:51:53.499Z,28.26
2023-05-12T03:52:53.631Z,46.53
2023-05-12T03:53:54.220Z,73.26
2023-05-12T03:54:53.809Z,82.11
2023-05-12T03:55:53.929Z,72.78
2023-05-12T03:56:54.033Z,72.89
2023-05-12T03:57:54.106Z,40.78
2023-05-12T03:58:54.200Z,70.02
2023-05-12T03:59:54.323Z,81.77
2023-05-12T04:00:54.428Z,62.76
2023-05-12T04:01:54.559Z,70.74
2023-05-12T04:02:54.831Z,82.19
2023-05-12T04:03:54.846Z,98.56
2023-05-12T04:04:54.891Z,105.70
2023-05-12T04:05:54.994Z,107.48
2023-05-12T04:06:55.103Z,115.76
2023-05-12T04:07:55.215Z,140.11
2023-05-12T04:08:55.345Z,167.45
2023-05-12T04:09:55.427Z,128.42
2023-05-12T04:10:55.504Z,119.41
2023-05-12T04:11:55.662Z,101.70
2023-05-12T04:12:55.723Z,155.97
2023-05-12T04:13:55.833Z,170.95
2023-05-12T04:14:55.934Z,140.10
2023-05-12T04:15:56.000Z,127.51
2023-05-12T04:16:56.176Z,156.51
2023-05-12T04:17:56.171Z,183.43
2023-05-12T04:18:56.257Z,183.07
2023-05-12T04:19:56.334Z,180.16
2023-05-12T04:20:56.469Z,181.45
2023-05-12T04:21:56.610Z,190.65
2023-05-12T04:22:56.713Z,207.78
2023-05-12T04:23:56.837Z,233.17
2023-05-12T04:24:56.876Z,216.59
2023-05-12T04:25:58.039Z,198.34
2023-05-12T04:26:56.987Z,180.58
2023-05-12T04:27:57.045Z,170.45
2023-05-12T04:28:57.148Z,154.13
2023-05-12T04:29:57.181Z,244.57
2023-05-12T04:30:57.273Z,221.87
2023-05-12T04:31:57.456Z,184.50
2023-05-12T04:32:57.519Z,151.26
2023-05-12T04:33:57.616Z,174.95
2023-05-12T04:34:57.715Z,174.38
2023-05-12T04:35:57.800Z,188.20
2023-05-12T04:36:57.820Z,206.74
2023-05-12T04:37:57.896Z,227.89
2023-05-12T04:38:57.978Z,238.55
2023-05-12T04:39:58.060Z,232.49
2023-05-12T04:40:58.159Z,224.36
2023-05-12T04:41:58.265Z,217.55
2023-05-12T04:42:58.350Z,212.18
2023-05-12T04:44:00.510Z,223.45
2023-05-12T04:44:58.513Z,242.65
2023-05-12T04:46:00.272Z,250.00
2023-05-12T04:46:58.622Z,250.12
2023-05-12T04:47:58.722Z,251.52
2023-05-12T04:48:58.764Z,250.30
2023-05-12T04:49:58.772Z,260.32
2023-05-12T04:50:58.886Z,255.54
2023-05-12T04:51:58.884Z,244.05
2023-05-12T04:52:58.933Z,244.79
2023-05-12T04:53:58.996Z,235.74
2023-05-12T04:54:59.061Z,239.85
2023-05-12T04:55:59.138Z,236.12
2023-05-12T04:56:59.139Z,240.62
2023-05-12T04:57:59.184Z,246.83
2023-05-12T04:58:59.260Z,236.67
2023-05-12T04:59:59.314Z,210.07
2023-05-12T05:00:59.410Z,192.77
2023-05-12T05:01:59.411Z,209.42
2023-05-12T05:02:59.530Z,225.79
2023-05-12T05:03:59.588Z,242.30
2023-05-12T05:04:59.592Z,241.17
2023-05-12T05:05:59.650Z,236.01
2023-05-12T05:06:59.772Z,239.61
2023-05-12T05:07:59.783Z,235.31
2023-05-12T05:08:59.831Z,244.11
2023-05-12T05:09:59.894Z,243.04
2023-05-12T05:10:59.957Z,247.41
2023-05-12T05:11:59.997Z,247.25
2023-05-12T05:13:00.032Z,238.01
2023-05-12T05:14:00.144Z,247.01
2023-05-12T05:15:00.185Z,256.50
2023-05-12T05:16:00.329Z,249.57
2023-05-12T05:17:00.295Z,233.67
2023-05-12T05:18:01.770Z,228.73
2023-05-12T05:19:03.758Z,230.14
2023-05-12T05:20:00.539Z,229.56
2023-05-12T05:21:00.814Z,206.20
2023-05-12T05:22:00.752Z,203.70
2023-05-12T05:23:01.726Z,206.39
2023-05-12T05:24:00.727Z,203.40
2023-05-12T05:25:00.805Z,207.83
2023-05-12T05:26:00.864Z,212.61
2023-05-12T05:27:01.261Z,219.48
2023-05-12T05:28:00.982Z,225.90
2023-05-12T05:29:01.086Z,251.07
2023-05-12T05:30:01.181Z,250.00
2023-05-12T05:47:59.011Z,25.00
2023-05-12T05:48:59.735Z,25.00
2023-05-12T05:49:59.758Z,25.00
2023-05-12T05:51:01.076Z,25.00
2023-05-12T05:52:06.290Z,25.00
2023-05-12T05:52:59.780Z,25.00
2023-05-12T05:54:07.185Z,25.00
2023-05-12T05:55:03.002Z,25.00
2023-05-12T05:55:59.847Z,25.00
2023-05-12T05:57:15.525Z,25.00
2023-05-12T05:58:03.057Z,25.00
2023-05-12T05:58:59.875Z,25.00
2023-05-12T06:00:01.964Z,25.00
2023-05-12T06:00:59.883Z,25.00
2023-05-12T06:01:59.904Z,25.00
2023-05-12T18:44:54.246Z,25.00
2023-05-12T18:45:55.212Z,25.00
2023-05-12T18:46:55.334Z,25.00
2023-05-12T18:47:55.297Z,25.00
2023-05-12T18:48:55.254Z,25.00
2023-05-12T18:49:55.290Z,24.49
2023-05-12T18:50:55.290Z,24.19
2023-05-12T18:51:55.305Z,0.00
2023-05-12T18:52:55.324Z,0.00
2023-05-12T18:53:55.356Z,0.00
2023-05-12T18:54:55.378Z,23.78
2023-05-12T18:55:55.394Z,8.16
2023-05-12T18:56:55.442Z,10.71
2023-05-12T18:57:55.458Z,21.95
2023-05-12T18:58:55.472Z,26.72
2023-05-12T18:59:55.497Z,48.62
2023-05-12T19:00:55.553Z,61.21
2023-05-12T19:01:55.581Z,66.91
2023-05-12T19:02:55.669Z,51.43
2023-05-12T19:03:55.625Z,75.46
2023-05-12T19:04:55.846Z,107.16
2023-05-12T19:05:55.648Z,114.34
2023-05-12T19:06:55.665Z,95.02
2023-05-12T19:07:55.699Z,85.99
2023-05-12T19:08:55.699Z,73.81
2023-05-12T19:09:55.723Z,31.53
2023-05-12T19:10:55.747Z,36.11
2023-05-12T19:11:55.762Z,38.00
2023-05-12T19:12:55.803Z,110.44
2023-05-12T19:13:55.836Z,237.57
2023-05-12T19:14:55.886Z,375.51
2023-05-12T19:15:55.905Z,439.71
2023-05-12T19:16:55.931Z,291.76
2023-05-12T19:17:55.970Z,250.86
2023-05-12T19:18:55.997Z,208.49
2023-05-12T19:19:56.108Z,160.42
2023-05-12T19:20:56.204Z,145.38
2023-05-12T19:21:56.306Z,128.93
2023-05-12T19:22:56.418Z,145.25
2023-05-12T19:23:56.526Z,172.95
2023-05-12T19:24:56.613Z,201.46
2023-05-12T19:25:56.702Z,200.06
2023-05-12T19:26:56.744Z,164.23
2023-05-12T19:27:56.859Z,146.02
2023-05-12T19:28:56.943Z,123.79
2023-05-12T19:29:57.059Z,99.37
2023-05-12T19:30:57.147Z,73.18
2023-05-12T19:31:57.312Z,41.27
2023-05-12T19:32:57.420Z,50.82
2023-05-12T19:33:57.412Z,33.85
2023-05-12T19:34:57.525Z,16.35
2023-05-12T19:35:57.608Z,25.00
2023-05-12T19:36:57.738Z,27.51
2023-05-12T19:37:57.820Z,30.63
2023-05-12T19:38:57.871Z,25.94
2023-05-12T19:39:57.979Z,25.00
2023-05-12T19:40:58.106Z,30.88
2023-05-12T19:41:58.170Z,46.50
2023-05-12T19:42:58.272Z,50.31
2023-05-12T19:43:58.330Z,43.28
2023-05-12T19:44:58.405Z,37.60
2023-05-12T19:45:58.538Z,31.98
2023-05-12T19:46:58.624Z,33.95
2023-05-12T19:47:58.740Z,26.72
2023-05-12T19:48:58.839Z,25.65
2023-05-12T19:49:58.874Z,25.00
2023-05-12T19:50:58.976Z,28.84
2023-05-12T19:51:59.058Z,39.82
2023-05-12T19:52:59.143Z,56.31
2023-05-12T19:53:59.260Z,45.45
2023-05-12T19:54:59.373Z,42.06
2023-05-12T19:55:59.497Z,47.95
2023-05-12T19:56:59.597Z,56.58
2023-05-12T19:57:59.672Z,59.94
2023-05-12T19:58:59.759Z,46.71
2023-05-12T19:59:59.805Z,40.49
2023-05-12T20:00:59.932Z,38.36
2023-05-12T20:02:00.004Z,41.71
2023-05-12T20:03:00.209Z,47.53
2023-05-12T20:04:00.225Z,51.63
2023-05-12T20:05:00.278Z,52.79
2023-05-12T20:06:00.390Z,56.20
2023-05-12T20:07:00.502Z,61.78
2023-05-12T20:08:00.563Z,73.03
2023-05-12T20:09:00.672Z,89.44
2023-05-12T20:10:00.756Z,96.31
2023-05-12T20:11:00.828Z,90.55
2023-05-12T20:12:00.940Z,90.84
2023-05-12T20:13:01.007Z,106.09
2023-05-12T20:14:01.104Z,124.13
2023-05-12T20:15:01.195Z,129.04
2023-05-12T20:16:01.250Z,126.09
2023-05-12T20:17:01.374Z,124.64
2023-05-12T20:18:01.441Z,113.32
2023-05-12T20:19:02.865Z,102.04
2023-05-12T20:20:01.611Z,92.47
2023-05-12T20:21:01.452Z,88.00
2023-05-12T20:22:01.489Z,78.99
2023-05-12T20:23:01.510Z,69.89
2023-05-12T20:24:01.593Z,59.44
2023-05-12T20:25:01.662Z,60.25
2023-05-12T20:26:01.576Z,60.18
2023-05-12T20:27:01.597Z,54.44
2023-05-12T20:28:01.624Z,53.65
2023-05-12T20:29:01.668Z,49.39
2023-05-12T20:30:01.734Z,45.42
2023-05-12T20:31:01.775Z,35.41
2023-05-12T20:32:01.779Z,40.34
2023-05-12T20:33:01.891Z,34.45
2023-05-12T20:34:01.860Z,25.00
2023-05-12T20:35:01.919Z,27.01
2023-05-12T20:36:01.988Z,26.40
2023-05-12T20:37:01.993Z,25.00
2023-05-12T20:38:02.032Z,24.77
2023-05-12T20:39:02.086Z,25.00
2023-05-12T20:40:02.096Z,34.44
2023-05-12T20:41:02.128Z,38.41
2023-05-12T20:42:02.158Z,30.51
2023-05-12T20:43:02.185Z,27.34
2023-05-12T20:44:02.221Z,31.52
2023-05-12T20:45:02.260Z,35.47
2023-05-12T20:46:02.451Z,36.81
2023-05-12T20:47:02.305Z,30.41
2023-05-12T20:48:02.417Z,37.58
2023-05-12T20:49:02.390Z,49.56
2023-05-12T20:50:02.404Z,35.57
2023-05-12T20:51:02.415Z,27.92
2023-05-12T20:52:02.484Z,26.86
2023-05-12T20:53:02.476Z,25.81
2023-05-12T20:54:02.544Z,26.60
2023-05-12T20:55:02.566Z,26.15
2023-05-12T20:56:02.598Z,25.00
2023-05-12T20:57:02.635Z,26.98
2023-05-12T20:58:02.716Z,33.49
2023-05-12T20:59:02.760Z,35.45
2023-05-12T21:00:02.808Z,34.05
2023-05-12T21:01:02.878Z,25.00
2023-05-12T21:02:02.942Z,25.44
2023-05-12T21:03:03.022Z,27.14
2023-05-12T21:04:03.104Z,28.21
2023-05-12T21:05:03.153Z,27.75
2023-05-12T21:06:03.208Z,36.72
2023-05-12T21:07:03.277Z,33.02
2023-05-12T21:08:03.383Z,28.11
2023-05-12T21:09:03.422Z,30.24
2023-05-12T21:10:03.518Z,26.86
2023-05-12T21:11:03.550Z,27.24
2023-05-12T21:12:03.629Z,27.30
2023-05-12T21:13:03.700Z,25.30
2023-05-12T21:14:03.805Z,25.76
2023-05-12T21:15:03.842Z,26.12
2023-05-12T21:16:03.969Z,28.39
2023-05-12T21:17:04.020Z,32.99
2023-05-12T21:18:04.083Z,35.22
2023-05-12T21:19:04.198Z,31.21
2023-05-12T21:20:04.270Z,31.20
2023-05-12T21:21:04.309Z,36.48
2023-05-12T21:22:04.372Z,41.71
2023-05-12T21:23:04.440Z,45.75
2023-05-12T21:24:04.517Z,42.93
2023-05-12T21:25:04.507Z,45.88
2023-05-12T21:26:04.610Z,49.64
2023-05-12T21:27:04.669Z,50.80
2023-05-12T21:28:04.687Z,47.40
2023-05-12T21:29:04.719Z,50.98
2023-05-12T21:30:04.743Z,52.17
2023-05-12T21:31:04.815Z,52.00
2023-05-12T21:32:04.872Z,46.99
2023-05-12T21:33:04.984Z,38.80
2023-05-12T21:34:05.026Z,31.16
2023-05-12T21:35:05.107Z,30.01
2023-05-12T21:36:05.215Z,28.02
2023-05-12T21:37:05.330Z,32.26
2023-05-12T21:38:05.415Z,26.65
2023-05-12T21:39:05.516Z,26.80
2023-05-12T21:40:05.647Z,28.14
2023-05-12T21:41:05.721Z,27.26
2023-05-12T21:42:05.839Z,25.75
2023-05-12T21:43:05.929Z,30.46
2023-05-12T21:44:06.065Z,29.75
2023-05-12T21:45:06.117Z,25.16
2023-05-12T21:46:06.216Z,28.50
2023-05-12T21:47:06.252Z,29.30
2023-05-12T21:48:06.425Z,27.84
2023-05-12T21:49:06.453Z,28.38
2023-05-12T21:50:06.540Z,31.38
2023-05-12T21:51:06.612Z,30.52
2023-05-12T21:52:06.704Z,32.69
2023-05-12T21:53:06.823Z,29.34
2023-05-12T21:54:06.979Z,35.32
2023-05-12T21:55:07.004Z,28.35
2023-05-12T21:56:07.093Z,31.79
2023-05-12T21:57:07.162Z,29.79
2023-05-12T21:58:07.262Z,39.74
2023-05-12T21:59:07.305Z,29.59
2023-05-12T22:00:07.371Z,33.26
2023-05-12T22:01:07.435Z,30.96
2023-05-12T22:02:07.526Z,30.63
2023-05-12T22:03:07.710Z,31.36
2023-05-12T22:04:07.723Z,31.74
2023-05-12T22:05:07.679Z,29.16
2023-05-12T22:06:07.722Z,25.56
2023-05-12T22:07:07.850Z,27.60
2023-05-12T22:08:07.880Z,33.36
2023-05-12T22:09:07.940Z,28.85
2023-05-12T22:10:08.021Z,31.32
2023-05-12T22:11:08.085Z,32.99
2023-05-12T22:12:08.216Z,25.00
2023-05-12T22:13:08.273Z,29.03
2023-05-12T22:14:08.347Z,36.64
2023-05-12T22:15:08.416Z,34.70
2023-05-12T22:16:08.446Z,34.03
2023-05-12T22:17:08.504Z,33.72
2023-05-12T22:18:08.710Z,34.35
2023-05-12T22:19:08.752Z,39.05
2023-05-12T22:20:08.822Z,51.74
2023-05-12T22:21:08.864Z,82.34
2023-05-12T22:22:08.942Z,108.36
2023-05-12T22:23:09.035Z,123.01
2023-05-12T22:24:09.135Z,132.89
2023-05-12T22:25:09.229Z,137.64
2023-05-12T22:26:09.330Z,141.15
2023-05-12T22:27:09.423Z,145.38
2023-05-12T22:28:09.573Z,154.19
2023-05-12T22:29:09.643Z,157.65
2023-05-12T22:30:09.689Z,151.28
2023-05-12T22:31:09.763Z,152.93
2023-05-12T22:32:09.785Z,153.81
2023-05-12T22:33:09.856Z,156.36
2023-05-12T22:34:09.885Z,162.25
2023-05-12T22:35:09.926Z,164.08
2023-05-12T22:36:09.975Z,156.24
2023-05-12T22:37:10.020Z,159.58
2023-05-12T22:38:10.053Z,151.14
2023-05-12T22:39:10.152Z,153.06
2023-05-12T22:40:10.233Z,161.90
2023-05-12T22:41:10.324Z,164.99
2023-05-12T22:42:10.440Z,165.97
2023-05-12T22:43:10.498Z,169.98
2023-05-12T22:44:10.616Z,177.03
2023-05-12T22:45:10.578Z,179.95
2023-05-12T22:46:10.632Z,189.66
2023-05-12T22:47:10.856Z,200.81
2023-05-12T22:48:10.830Z,202.30
2023-05-12T22:49:10.915Z,205.89
2023-05-12T22:50:10.984Z,206.87
2023-05-12T22:51:11.075Z,208.12
2023-05-12T22:52:11.160Z,211.09
2023-05-12T22:53:11.223Z,215.59
2023-05-12T22:54:11.337Z,214.87
2023-05-12T22:55:11.390Z,214.24
2023-05-12T22:56:11.463Z,210.22
2023-05-12T22:57:11.578Z,209.93
2023-05-12T22:58:11.672Z,209.27
2023-05-12T22:59:11.794Z,210.00
2023-05-12T23:00:11.937Z,213.53
2023-05-12T23:01:12.057Z,212.80
2023-05-12T23:02:12.085Z,212.50
2023-05-12T23:03:12.158Z,212.21
2023-05-12T23:04:12.334Z,204.77
2023-05-12T23:55:41.992Z,25.00
2023-05-12T23:56:42.963Z,25.00
2023-05-12T23:57:42.979Z,25.00
2023-05-12T23:58:42.980Z,25.00
2023-05-12T23:59:42.980Z,25.00
